Airfield :
LOGIN :

Register | Disclaimer

   EN    FR    IT 

 










Legend :    VFR   Marginal VFR   IFR   Intensive IFR   Very Intensive IFR
Visi :
Ceiling :
>= 8 km
>= 3000ft
5 to 8 km
1000 to 3000 ft
1500m to 5 km
500 to 1000 ft
800 to 1500m
200 to 500 ft
< 800m
< 200 ft
Symbols :   Thunderstorms  Fog  Heavy snow  Heavy precipitations  Wind > 20 kt
SIGMETs :     Misc.  Thunderstorms  Icing  Turbulence  Mountain Waves  Volcanic Ashes







- Airport Elevation : 33 ft
- IATA code : MHZ


EGUN - RAF Mildenhall

CURRENT METAR :
  • 221156Z AUTO 01012G22KT 9999 CLR 19/17 A3002 RMK AO2 SLP169 T01850165 10195 20122 53007 $

EXPIRED METARs :
  • 221056Z AUTO 01012G19KT 9999 FEW190 19/17 A3001 RMK AO2 SLP165 T01900171 $
  • 220956Z AUTO 01011G16KT 9999 CLR 19/18 A3000 RMK AO2 SLP162 T01910178 $

TAF TAF EGUN
Valid from the 22 at 04:00 until the 23 at 10:00 UTC


220403Z 2204/2310 VRB06KT 9999 FEW060 QNH2994INS
BECMG 2207/2208 01010G15KT 9999 SCT060 QNH2998INS
BECMG 2219/2220 VRB06KT 8000 BR FEW060 QNH3011INS
BECMG 2306/2307 01012G20KT 9999 NSW SCT060 QNH3018INS TX23/2213Z TN07/2204Z
No reported NOTAMs for that airfield.



MET'MAP, your aeronautical weather chart ! - Copyright ORBIFLY December 2007 - Disclaimer

ORBIFLY MET'MAP TEAM :

Programming & Development : Alexandra Zaïnal
Concept & Development : Baudouin d'Aumeries
Co-Development & Prog : Marc-Olivier Méhu
Technical & hardware support : Manuel Goepfert

Contact : metmap@orbifly.com




SOURCES & CREDITS :

   NOAA